createdAt,value
2018-12-03T00:01:54.636Z,12.90
2018-12-03T00:06:02.910Z,12.80
2018-12-03T00:10:10.846Z,12.80
2018-12-03T00:14:19.112Z,12.80
2018-12-03T00:18:27.446Z,12.80
2018-12-03T00:22:35.719Z,12.70
2018-12-03T00:26:43.972Z,12.80
2018-12-03T00:30:52.323Z,12.80
2018-12-03T00:35:00.676Z,12.80
2018-12-03T00:39:09.346Z,12.80
2018-12-03T00:43:17.634Z,12.80
2018-12-03T00:47:25.934Z,12.80
2018-12-03T00:51:34.183Z,12.90
2018-12-03T00:55:42.520Z,12.90
2018-12-03T00:59:50.750Z,12.90
2018-12-03T01:03:59.034Z,12.80
2018-12-03T01:08:07.319Z,12.90
2018-12-03T01:12:15.595Z,12.90
2018-12-03T01:16:23.855Z,12.90
2018-12-03T01:20:32.162Z,12.90
2018-12-03T01:24:40.650Z,13.00
2018-12-03T01:28:48.947Z,12.90
2018-12-03T01:32:57.286Z,13.00
2018-12-03T01:37:05.593Z,13.00
2018-12-03T01:41:13.895Z,12.90
2018-12-03T01:45:22.167Z,12.90
2018-12-03T01:49:30.439Z,12.90
2018-12-03T01:53:38.710Z,12.90
2018-12-03T01:57:47.060Z,12.90
2018-12-03T02:01:55.331Z,13.00
2018-12-03T02:06:03.609Z,12.90
2018-12-03T02:10:14.120Z,12.90
2018-12-03T02:14:22.380Z,12.90
2018-12-03T02:18:31.247Z,13.00
2018-12-03T02:22:39.631Z,13.00
2018-12-03T02:26:47.908Z,13.00
2018-12-03T02:30:56.187Z,13.00
2018-12-03T02:35:04.577Z,13.00
2018-12-03T02:39:12.830Z,13.00
2018-12-03T02:43:21.113Z,13.00
2018-12-03T02:47:29.337Z,12.90
2018-12-03T02:51:37.683Z,12.90
2018-12-03T02:55:46.515Z,12.90
2018-12-03T02:59:54.884Z,12.80
2018-12-03T03:04:03.208Z,12.80
2018-12-03T03:08:11.462Z,12.80
2018-12-03T03:12:19.771Z,12.80
2018-12-03T03:16:28.036Z,12.80
2018-12-03T03:20:36.344Z,12.90
2018-12-03T03:24:44.599Z,12.90
2018-12-03T03:28:52.847Z,12.80
2018-12-03T03:33:01.109Z,12.90
2018-12-03T03:37:09.418Z,12.90
2018-12-03T03:41:17.705Z,12.90
2018-12-03T03:45:28.795Z,12.90
2018-12-03T03:49:40.519Z,13.10
2018-12-03T03:53:48.990Z,13.10
2018-12-03T03:57:57.250Z,13.10
2018-12-03T04:02:05.546Z,13.20
2018-12-03T04:06:13.857Z,13.30
2018-12-03T04:10:22.202Z,13.20
2018-12-03T04:14:30.420Z,13.10
2018-12-03T04:18:38.749Z,13.10
2018-12-03T04:22:50.401Z,13.10
2018-12-03T04:26:58.655Z,13.20
2018-12-03T04:31:06.908Z,13.20
2018-12-03T04:35:15.231Z,13.20
2018-12-03T04:39:23.494Z,13.20
2018-12-03T04:43:31.808Z,13.20
2018-12-03T04:47:40.077Z,13.20
2018-12-03T04:51:48.424Z,13.10
2018-12-03T04:55:56.876Z,13.10
2018-12-03T05:00:12.220Z,13.10
2018-12-03T05:04:20.521Z,13.20
2018-12-03T05:08:28.775Z,13.10
2018-12-03T05:12:37.048Z,13.00
2018-12-03T05:16:45.348Z,12.90
2018-12-03T05:20:53.608Z,12.90
2018-12-03T05:25:01.874Z,12.90
2018-12-03T05:29:10.201Z,13.00
2018-12-03T05:33:18.461Z,12.90
2018-12-03T05:37:26.746Z,12.90
2018-12-03T05:41:34.979Z,12.80
2018-12-03T05:45:43.252Z,12.80
2018-12-03T05:49:51.606Z,12.80
2018-12-03T05:53:59.867Z,12.80
2018-12-03T05:58:08.172Z,12.90
2018-12-03T06:02:16.566Z,12.80
2018-12-03T06:06:24.834Z,12.70
2018-12-03T06:10:33.115Z,12.70
2018-12-03T06:14:41.416Z,12.70
2018-12-03T06:18:49.688Z,12.80
2018-12-03T06:22:57.959Z,12.80
2018-12-03T06:27:06.266Z,12.80
2018-12-03T06:31:14.541Z,12.70
2018-12-03T06:35:22.839Z,12.60
2018-12-03T06:39:31.109Z,12.50
2018-12-03T06:43:39.370Z,12.50
2018-12-03T06:47:58.159Z,12.50
2018-12-03T06:52:06.527Z,12.50
2018-12-03T06:56:14.812Z,12.50
2018-12-03T07:00:23.935Z,12.50
2018-12-03T07:04:32.199Z,12.50
2018-12-03T07:08:40.505Z,12.40
2018-12-03T07:12:51.729Z,12.50
2018-12-03T07:17:00.011Z,12.50
2018-12-03T07:21:08.289Z,12.50
2018-12-03T07:25:16.556Z,12.40
2018-12-03T07:29:24.840Z,12.40
2018-12-03T07:33:33.093Z,12.40
2018-12-03T07:37:41.413Z,12.40
2018-12-03T07:41:49.683Z,12.40
2018-12-03T07:45:57.943Z,12.40
2018-12-03T07:50:08.474Z,12.40
2018-12-03T07:54:16.832Z,12.40
2018-12-03T07:58:25.112Z,12.40
2018-12-03T08:02:33.372Z,12.40
2018-12-03T08:06:41.640Z,12.40
2018-12-03T08:10:52.714Z,12.40
2018-12-03T08:15:01.011Z,12.40
2018-12-03T08:19:09.249Z,12.30
2018-12-03T08:23:28.004Z,12.30
2018-12-03T08:27:36.275Z,12.30
2018-12-03T08:31:44.577Z,12.30
2018-12-03T08:35:52.840Z,12.30
2018-12-03T08:40:01.143Z,12.40
2018-12-03T08:44:09.384Z,12.40
2018-12-03T08:48:17.652Z,12.50
2018-12-03T08:52:25.933Z,12.60
2018-12-03T08:56:34.251Z,12.60
2018-12-03T09:00:43.727Z,12.50
2018-12-03T09:04:52.649Z,12.50
2018-12-03T09:09:00.939Z,12.50
2018-12-03T09:13:15.702Z,12.40
2018-12-03T09:17:23.990Z,12.50
2018-12-03T09:21:32.290Z,12.40
2018-12-03T09:25:40.552Z,12.40
2018-12-03T09:29:48.906Z,12.30
2018-12-03T09:33:58.571Z,12.30
2018-12-03T09:42:14.924Z,12.20
2018-12-03T09:46:23.209Z,12.30
2018-12-03T09:50:31.491Z,12.40
2018-12-03T09:54:39.780Z,12.40
2018-12-03T09:58:48.136Z,12.40
2018-12-03T10:02:57.975Z,12.40
2018-12-03T10:07:06.379Z,12.40
2018-12-03T10:11:14.725Z,12.50
2018-12-03T10:15:27.970Z,12.50
2018-12-03T10:19:36.266Z,12.60
2018-12-03T10:23:44.561Z,12.70
2018-12-03T10:27:57.875Z,12.80
2018-12-03T10:32:06.376Z,12.90
2018-12-03T10:36:14.661Z,13.00
2018-12-03T10:40:22.949Z,12.90
2018-12-03T10:44:31.244Z,12.90
2018-12-03T10:48:39.550Z,13.00
2018-12-03T10:52:47.883Z,13.00
2018-12-03T10:56:56.241Z,13.10
2018-12-03T11:01:12.400Z,13.00
2018-12-03T11:05:28.320Z,12.90
2018-12-03T11:09:36.620Z,13.20
2018-12-03T11:13:44.970Z,13.10
2018-12-03T11:17:53.285Z,13.10
2018-12-03T11:22:01.657Z,13.00
2018-12-03T11:26:10.045Z,13.00
2018-12-03T11:30:18.410Z,13.00
2018-12-03T11:34:26.751Z,12.90
2018-12-03T11:38:56.916Z,13.10
2018-12-03T11:43:05.602Z,13.00
2018-12-03T11:47:13.930Z,13.10
2018-12-03T11:51:22.362Z,13.10
2018-12-03T11:55:30.667Z,13.20
2018-12-03T11:59:38.962Z,13.20
2018-12-03T12:03:47.452Z,13.10
2018-12-03T12:07:55.772Z,13.10
2018-12-03T12:12:04.091Z,13.10
2018-12-03T12:16:12.396Z,13.20
2018-12-03T12:20:20.752Z,13.30
2018-12-03T12:24:30.592Z,13.30
2018-12-03T12:28:38.881Z,13.30
2018-12-03T12:32:47.191Z,13.30
2018-12-03T12:36:55.539Z,13.20
2018-12-03T12:41:03.864Z,13.20
2018-12-03T12:45:18.006Z,13.20
2018-12-03T12:49:26.305Z,13.20
2018-12-03T12:53:34.622Z,13.20
2018-12-03T12:57:43.010Z,13.20
2018-12-03T13:01:51.306Z,13.10
2018-12-03T13:05:59.653Z,13.00
2018-12-03T13:10:13.599Z,12.90
2018-12-03T13:14:21.936Z,12.90
2018-12-03T13:18:30.323Z,12.80
2018-12-03T13:22:38.558Z,12.80
2018-12-03T13:26:46.847Z,12.70
2018-12-03T13:30:55.102Z,12.70
2018-12-03T13:35:03.408Z,12.70
2018-12-03T13:39:11.676Z,12.70
2018-12-03T13:43:19.942Z,12.70
2018-12-03T13:47:28.224Z,12.70
2018-12-03T13:51:36.484Z,12.70
2018-12-03T13:55:44.863Z,12.70
2018-12-03T13:59:53.160Z,12.70
2018-12-03T14:04:06.791Z,12.70
2018-12-03T14:10:27.432Z,12.70
2018-12-03T14:14:58.403Z,12.70
2018-12-03T14:19:13.875Z,12.60
2018-12-03T14:27:32.395Z,12.50
2018-12-03T14:31:40.746Z,12.50
2018-12-03T14:39:57.047Z,12.40
2018-12-03T14:44:05.300Z,12.40
2018-12-03T14:48:13.567Z,12.30
2018-12-03T14:52:21.903Z,12.30
2018-12-03T14:56:30.192Z,12.20
2018-12-03T15:00:38.520Z,12.20
2018-12-03T15:04:46.827Z,12.10
2018-12-03T15:08:55.104Z,12.00
2018-12-03T15:13:03.388Z,12.00
2018-12-03T15:17:11.642Z,12.00
2018-12-03T15:21:19.924Z,11.90
2018-12-03T15:25:28.236Z,11.80
2018-12-03T15:29:36.518Z,11.80
2018-12-03T15:33:44.759Z,11.70
2018-12-03T15:37:53.036Z,11.70
2018-12-03T15:42:01.281Z,11.80
2018-12-03T15:46:09.552Z,11.80
2018-12-03T15:50:17.847Z,11.80
2018-12-03T15:54:26.110Z,11.70
2018-12-03T15:58:34.407Z,11.70
2018-12-03T16:02:42.689Z,11.90
2018-12-03T16:06:50.947Z,11.90
2018-12-03T16:10:59.216Z,11.80
2018-12-03T16:15:08.668Z,11.80
2018-12-03T16:19:16.904Z,11.80
2018-12-03T16:23:25.169Z,11.80
2018-12-03T16:27:33.467Z,11.80
2018-12-03T16:31:41.739Z,11.80
2018-12-03T16:35:50.291Z,11.80
2018-12-03T16:39:58.556Z,11.80
2018-12-03T16:44:06.876Z,11.80
2018-12-03T16:48:15.165Z,11.80
2018-12-03T16:52:23.431Z,11.90
2018-12-03T16:56:31.752Z,11.90
2018-12-03T17:04:48.011Z,11.90
2018-12-03T17:08:56.279Z,12.00
2018-12-03T17:13:04.537Z,12.00
2018-12-03T17:17:12.819Z,12.00
2018-12-03T17:22:16.612Z,12.00
2018-12-03T17:26:24.901Z,12.10
2018-12-03T17:30:33.146Z,12.10
2018-12-03T17:34:41.411Z,12.00
2018-12-03T17:38:49.699Z,12.00
2018-12-03T17:42:57.975Z,12.00
2018-12-03T17:47:06.288Z,12.10
2018-12-03T17:51:14.564Z,12.00
2018-12-03T17:55:22.900Z,12.00
2018-12-03T17:59:31.197Z,11.90
2018-12-03T18:03:39.581Z,12.10
2018-12-03T18:07:47.878Z,12.10
2018-12-03T18:11:56.141Z,12.00
2018-12-03T18:16:04.602Z,12.00
2018-12-03T18:20:12.898Z,12.10
2018-12-03T18:24:21.184Z,12.10
2018-12-03T18:28:29.495Z,12.00
2018-12-03T18:32:37.784Z,12.00
2018-12-03T18:36:46.130Z,12.30
2018-12-03T18:40:54.392Z,12.20
2018-12-03T18:45:02.675Z,12.20
2018-12-03T18:49:37.416Z,12.10
2018-12-03T18:53:45.678Z,12.10
2018-12-03T18:57:57.959Z,12.00
2018-12-03T19:02:06.219Z,12.10
2018-12-03T19:06:14.498Z,12.10
2018-12-03T19:10:22.810Z,12.00
2018-12-03T19:14:31.099Z,12.00
2018-12-03T19:18:39.386Z,12.10
2018-12-03T19:22:47.674Z,12.20
2018-12-03T19:26:55.965Z,12.10
2018-12-03T19:31:04.236Z,12.10
2018-12-03T19:35:12.863Z,12.00
2018-12-03T19:39:21.292Z,12.00
2018-12-03T19:43:29.660Z,12.00
2018-12-03T19:47:37.941Z,12.00
2018-12-03T19:51:46.222Z,11.90
2018-12-03T19:55:54.497Z,12.00
2018-12-03T20:00:02.851Z,12.00
2018-12-03T20:04:21.504Z,11.90
2018-12-03T20:08:29.800Z,12.00
2018-12-03T20:12:38.156Z,11.80
2018-12-03T20:16:46.416Z,11.80
2018-12-03T20:21:02.048Z,11.80
2018-12-03T20:25:12.985Z,11.90
2018-12-03T20:29:31.039Z,11.80
2018-12-03T20:33:53.855Z,11.80
2018-12-03T20:38:15.355Z,11.80
2018-12-03T20:42:26.907Z,11.80
2018-12-03T20:46:49.907Z,11.80
2018-12-03T20:51:05.629Z,11.80
2018-12-03T20:55:21.337Z,11.70
2018-12-03T20:59:29.647Z,11.70
2018-12-03T21:03:37.938Z,11.70
2018-12-03T21:07:46.232Z,11.70
2018-12-03T21:11:54.555Z,11.80
2018-12-03T21:16:03.426Z,11.70
2018-12-03T21:20:19.783Z,11.70
2018-12-03T21:24:28.041Z,11.70
2018-12-03T21:28:36.377Z,11.70
2018-12-03T21:32:44.609Z,11.50
2018-12-03T21:36:52.895Z,11.60
2018-12-03T21:41:01.174Z,11.60
2018-12-03T21:45:09.403Z,11.50
2018-12-03T21:49:17.835Z,11.60
2018-12-03T21:53:26.302Z,11.70
2018-12-03T21:57:34.637Z,11.60
2018-12-03T22:01:42.919Z,11.60
2018-12-03T22:05:51.242Z,11.50
2018-12-03T22:09:59.557Z,11.60
2018-12-03T22:14:07.888Z,11.50
2018-12-03T22:18:16.159Z,11.50
2018-12-03T22:22:24.437Z,11.50
2018-12-03T22:26:32.719Z,11.60
2018-12-03T22:30:40.976Z,11.60
2018-12-03T22:34:49.260Z,11.50
2018-12-03T22:38:57.532Z,11.50
2018-12-03T22:43:05.818Z,11.50
2018-12-03T22:47:14.084Z,11.40
2018-12-03T22:51:22.327Z,11.40
2018-12-03T22:55:30.607Z,11.30
2018-12-03T22:59:38.884Z,11.30
2018-12-03T23:03:47.216Z,10.90
2018-12-03T23:07:55.459Z,10.40
2018-12-03T23:12:03.779Z,10.00
2018-12-03T23:16:12.092Z,9.80
2018-12-03T23:20:20.356Z,9.60
2018-12-03T23:24:28.661Z,9.40
2018-12-03T23:28:37.039Z,9.30
2018-12-03T23:32:45.319Z,9.30
2018-12-03T23:36:53.626Z,9.30
2018-12-03T23:41:01.863Z,9.20
2018-12-03T23:45:10.257Z,9.10
2018-12-03T23:49:32.383Z,9.10
2018-12-03T23:53:40.671Z,9.10
2018-12-03T23:57:48.951Z,9.00
